<?xml version="1.0" encoding="UTF-8" standalone="no" ?>
<gpx xmlns="http://www.topografix.com/GPX/1/1" xmlns:xsi="http://www.w3.org/2001/XMLSchema-instance" xsi:schemaLocation="http://www.topografix.com/GPX/1/1 http://www.topografix.com/GPX/1/1/gpx.xsd" version="1.1" creator="VisuGPX - https://www.visugpx.com">
  <metadata>
    <name>Serigne_GueMeules_21km</name>
    <desc><![CDATA[gnerando idor:8031729_8986746]]></desc>
  </metadata>
  <trk>
    <name><![CDATA[Serigne_Meules_21.7km-8031729]]></name>
    <extensions>
      <line xmlns="http://www.topografix.com/GPX/gpx_style/0/2">
        <color>0000FF</color>
        <width>4</width>
      </line>
    </extensions>
    <trkseg>
      <trkpt lat="46.50137" lon="-0.84502">
        <ele>51</ele>
        <time>2023-11-13T19:17:42Z</time>
      </trkpt>
      <trkpt lat="46.50237" lon="-0.84571">
        <ele>56</ele>
        <time>2023-11-13T19:20:10Z</time>
      </trkpt>
      <trkpt lat="46.50282" lon="-0.84651">
        <ele>57</ele>
        <time>2023-11-13T19:21:45Z</time>
      </trkpt>
      <trkpt lat="46.50271" lon="-0.84686">
        <ele>57</ele>
        <time>2023-11-13T19:22:20Z</time>
      </trkpt>
      <trkpt lat="46.50292" lon="-0.84919">
        <ele>52</ele>
        <time>2023-11-13T19:25:56Z</time>
      </trkpt>
      <trkpt lat="46.50513" lon="-0.84842">
        <ele>55</ele>
        <time>2023-11-13T19:30:59Z</time>
      </trkpt>
      <trkpt lat="46.50592" lon="-0.8498">
        <ele>56</ele>
        <time>2023-11-13T19:33:44Z</time>
      </trkpt>
      <trkpt lat="46.50729" lon="-0.85152">
        <ele>38</ele>
        <time>2023-11-13T19:37:46Z</time>
      </trkpt>
      <trkpt lat="46.50624" lon="-0.8535">
        <ele>39</ele>
        <time>2023-11-13T19:41:35Z</time>
      </trkpt>
      <trkpt lat="46.50718" lon="-0.85473">
        <ele>29</ele>
        <time>2023-11-13T19:44:24Z</time>
      </trkpt>
      <trkpt lat="46.50913" lon="-0.85549">
        <ele>32</ele>
        <time>2023-11-13T19:48:53Z</time>
      </trkpt>
      <trkpt lat="46.50834" lon="-0.85873">
        <ele>38</ele>
        <time>2023-11-13T19:54:09Z</time>
      </trkpt>
      <trkpt lat="46.50681" lon="-0.85993">
        <ele>33</ele>
        <time>2023-11-13T19:58:01Z</time>
      </trkpt>
      <trkpt lat="46.50802" lon="-0.86341">
        <ele>54</ele>
        <time>2023-11-13T20:03:59Z</time>
      </trkpt>
      <trkpt lat="46.51171" lon="-0.86723">
        <ele>60</ele>
        <time>2023-11-13T20:14:04Z</time>
      </trkpt>
      <trkpt lat="46.5139" lon="-0.86285">
        <ele>58</ele>
        <time>2023-11-13T20:22:21Z</time>
      </trkpt>
      <trkpt lat="46.51115" lon="-0.85787">
        <ele>47</ele>
        <time>2023-11-13T20:32:07Z</time>
      </trkpt>
      <trkpt lat="46.51207" lon="-0.85633">
        <ele>50</ele>
        <time>2023-11-13T20:35:15Z</time>
      </trkpt>
      <trkpt lat="46.511" lon="-0.85431">
        <ele>38</ele>
        <time>2023-11-13T20:39:09Z</time>
      </trkpt>
      <trkpt lat="46.51376" lon="-0.84995">
        <ele>47</ele>
        <time>2023-11-13T20:48:13Z</time>
      </trkpt>
      <trkpt lat="46.51368" lon="-0.84892">
        <ele>50</ele>
        <time>2023-11-13T20:49:48Z</time>
      </trkpt>
      <trkpt lat="46.5126" lon="-0.84659">
        <ele>55</ele>
        <time>2023-11-13T20:54:06Z</time>
      </trkpt>
      <trkpt lat="46.51194" lon="-0.84663">
        <ele>52</ele>
        <time>2023-11-13T20:55:34Z</time>
      </trkpt>
      <trkpt lat="46.51197" lon="-0.84487">
        <ele>49</ele>
        <time>2023-11-13T20:58:16Z</time>
      </trkpt>
      <trkpt lat="46.51431" lon="-0.84449">
        <ele>53</ele>
        <time>2023-11-13T21:03:30Z</time>
      </trkpt>
      <trkpt lat="46.51726" lon="-0.84158">
        <ele>63</ele>
        <time>2023-11-13T21:11:26Z</time>
      </trkpt>
      <trkpt lat="46.51826" lon="-0.84101">
        <ele>63</ele>
        <time>2023-11-13T21:13:49Z</time>
      </trkpt>
      <trkpt lat="46.51891" lon="-0.84189">
        <ele>65</ele>
        <time>2023-11-13T21:15:48Z</time>
      </trkpt>
      <trkpt lat="46.51883" lon="-0.84044">
        <ele>60</ele>
        <time>2023-11-13T21:18:01Z</time>
      </trkpt>
      <trkpt lat="46.52086" lon="-0.83944">
        <ele>48</ele>
        <time>2023-11-13T21:22:47Z</time>
      </trkpt>
      <trkpt lat="46.52323" lon="-0.83688">
        <ele>52</ele>
        <time>2023-11-13T21:29:21Z</time>
      </trkpt>
      <trkpt lat="46.52317" lon="-0.837">
        <ele>51</ele>
        <time>2023-11-13T21:29:35Z</time>
      </trkpt>
      <trkpt lat="46.5249" lon="-0.83786">
        <ele>47</ele>
        <time>2023-11-13T21:33:39Z</time>
      </trkpt>
      <trkpt lat="46.52571" lon="-0.83976">
        <ele>44</ele>
        <time>2023-11-13T21:37:04Z</time>
      </trkpt>
      <trkpt lat="46.52624" lon="-0.83932">
        <ele>45</ele>
        <time>2023-11-13T21:38:26Z</time>
      </trkpt>
      <trkpt lat="46.5269" lon="-0.8397">
        <ele>48</ele>
        <time>2023-11-13T21:40:00Z</time>
      </trkpt>
      <trkpt lat="46.52861" lon="-0.83983">
        <ele>62</ele>
        <time>2023-11-13T21:43:49Z</time>
      </trkpt>
      <trkpt lat="46.52953" lon="-0.83588">
        <ele>66</ele>
        <time>2023-11-13T21:50:12Z</time>
      </trkpt>
      <trkpt lat="46.53074" lon="-0.83639">
        <ele>76</ele>
        <time>2023-11-13T21:53:00Z</time>
      </trkpt>
      <trkpt lat="46.53522" lon="-0.83174">
        <ele>86</ele>
        <time>2023-11-13T22:05:15Z</time>
      </trkpt>
      <trkpt lat="46.5364" lon="-0.8271">
        <ele>82</ele>
        <time>2023-11-13T22:12:49Z</time>
      </trkpt>
      <trkpt lat="46.5374" lon="-0.82522">
        <ele>79</ele>
        <time>2023-11-13T22:16:27Z</time>
      </trkpt>
      <trkpt lat="46.53879" lon="-0.82565">
        <ele>83</ele>
        <time>2023-11-13T22:19:36Z</time>
      </trkpt>
      <trkpt lat="46.53905" lon="-0.82414">
        <ele>86</ele>
        <time>2023-11-13T22:21:59Z</time>
      </trkpt>
      <trkpt lat="46.53882" lon="-0.82157">
        <ele>87</ele>
        <time>2023-11-13T22:25:57Z</time>
      </trkpt>
      <trkpt lat="46.54198" lon="-0.81912">
        <ele>95</ele>
        <time>2023-11-13T22:33:55Z</time>
      </trkpt>
      <trkpt lat="46.54342" lon="-0.81856">
        <ele>97</ele>
        <time>2023-11-13T22:37:14Z</time>
      </trkpt>
      <trkpt lat="46.54286" lon="-0.81668">
        <ele>97</ele>
        <time>2023-11-13T22:40:22Z</time>
      </trkpt>
      <trkpt lat="46.54357" lon="-0.81646">
        <ele>99</ele>
        <time>2023-11-13T22:41:59Z</time>
      </trkpt>
      <trkpt lat="46.54416" lon="-0.81376">
        <ele>103</ele>
        <time>2023-11-13T22:46:19Z</time>
      </trkpt>
      <trkpt lat="46.54516" lon="-0.81105">
        <ele>106</ele>
        <time>2023-11-13T22:51:01Z</time>
      </trkpt>
      <trkpt lat="46.54531" lon="-0.80938">
        <ele>109</ele>
        <time>2023-11-13T22:53:36Z</time>
      </trkpt>
      <trkpt lat="46.5426" lon="-0.80904">
        <ele>108</ele>
        <time>2023-11-13T22:59:39Z</time>
      </trkpt>
      <trkpt lat="46.54083" lon="-0.80998">
        <ele>107</ele>
        <time>2023-11-13T23:03:50Z</time>
      </trkpt>
      <trkpt lat="46.53929" lon="-0.8102">
        <ele>101</ele>
        <time>2023-11-13T23:07:17Z</time>
      </trkpt>
      <trkpt lat="46.53994" lon="-0.81118">
        <ele>105</ele>
        <time>2023-11-13T23:09:22Z</time>
      </trkpt>
      <trkpt lat="46.53985" lon="-0.81371">
        <ele>102</ele>
        <time>2023-11-13T23:13:14Z</time>
      </trkpt>
      <trkpt lat="46.53619" lon="-0.81655">
        <ele>80</ele>
        <time>2023-11-13T23:22:28Z</time>
      </trkpt>
      <trkpt lat="46.53708" lon="-0.81809">
        <ele>79</ele>
        <time>2023-11-13T23:25:33Z</time>
      </trkpt>
      <trkpt lat="46.53793" lon="-0.81942">
        <ele>86</ele>
        <time>2023-11-13T23:28:19Z</time>
      </trkpt>
      <trkpt lat="46.53371" lon="-0.82234">
        <ele>70</ele>
        <time>2023-11-13T23:38:43Z</time>
      </trkpt>
      <trkpt lat="46.53229" lon="-0.82256">
        <ele>65</ele>
        <time>2023-11-13T23:41:53Z</time>
      </trkpt>
      <trkpt lat="46.53023" lon="-0.8235">
        <ele>77</ele>
        <time>2023-11-13T23:46:42Z</time>
      </trkpt>
      <trkpt lat="46.52719" lon="-0.82496">
        <ele>65</ele>
        <time>2023-11-13T23:53:49Z</time>
      </trkpt>
      <trkpt lat="46.52633" lon="-0.8253">
        <ele>60</ele>
        <time>2023-11-13T23:55:48Z</time>
      </trkpt>
      <trkpt lat="46.52574" lon="-0.82436">
        <ele>62</ele>
        <time>2023-11-13T23:57:45Z</time>
      </trkpt>
      <trkpt lat="46.52349" lon="-0.82586">
        <ele>74</ele>
        <time>2023-11-14T00:03:15Z</time>
      </trkpt>
      <trkpt lat="46.52302" lon="-0.8249">
        <ele>78</ele>
        <time>2023-11-14T00:05:03Z</time>
      </trkpt>
      <trkpt lat="46.52432" lon="-0.81948">
        <ele>86</ele>
        <time>2023-11-14T00:13:50Z</time>
      </trkpt>
      <trkpt lat="46.52568" lon="-0.81803">
        <ele>91</ele>
        <time>2023-11-14T00:17:35Z</time>
      </trkpt>
      <trkpt lat="46.52773" lon="-0.82019">
        <ele>72</ele>
        <time>2023-11-14T00:23:13Z</time>
      </trkpt>
      <trkpt lat="46.52867" lon="-0.81682">
        <ele>76</ele>
        <time>2023-11-14T00:28:47Z</time>
      </trkpt>
      <trkpt lat="46.52788" lon="-0.81365">
        <ele>90</ele>
        <time>2023-11-14T00:33:57Z</time>
      </trkpt>
      <trkpt lat="46.5253" lon="-0.81017">
        <ele>83</ele>
        <time>2023-11-14T00:41:46Z</time>
      </trkpt>
      <trkpt lat="46.52173" lon="-0.81579">
        <ele>74</ele>
        <time>2023-11-14T00:53:29Z</time>
      </trkpt>
      <trkpt lat="46.52173" lon="-0.81762">
        <ele>79</ele>
        <time>2023-11-14T00:56:17Z</time>
      </trkpt>
      <trkpt lat="46.51936" lon="-0.81911">
        <ele>77</ele>
        <time>2023-11-14T01:02:01Z</time>
      </trkpt>
      <trkpt lat="46.51863" lon="-0.81797">
        <ele>72</ele>
        <time>2023-11-14T01:04:24Z</time>
      </trkpt>
      <trkpt lat="46.51636" lon="-0.82076">
        <ele>60</ele>
        <time>2023-11-14T01:11:01Z</time>
      </trkpt>
      <trkpt lat="46.51718" lon="-0.82213">
        <ele>60</ele>
        <time>2023-11-14T01:13:48Z</time>
      </trkpt>
      <trkpt lat="46.51563" lon="-0.82309">
        <ele>48</ele>
        <time>2023-11-14T01:17:32Z</time>
      </trkpt>
      <trkpt lat="46.51523" lon="-0.82408">
        <ele>45</ele>
        <time>2023-11-14T01:19:18Z</time>
      </trkpt>
      <trkpt lat="46.51463" lon="-0.82397">
        <ele>49</ele>
        <time>2023-11-14T01:20:39Z</time>
      </trkpt>
      <trkpt lat="46.51471" lon="-0.82317">
        <ele>48</ele>
        <time>2023-11-14T01:21:53Z</time>
      </trkpt>
      <trkpt lat="46.51334" lon="-0.82313">
        <ele>56</ele>
        <time>2023-11-14T01:24:56Z</time>
      </trkpt>
      <trkpt lat="46.51276" lon="-0.82416">
        <ele>66</ele>
        <time>2023-11-14T01:26:58Z</time>
      </trkpt>
      <trkpt lat="46.5115" lon="-0.82519">
        <ele>80</ele>
        <time>2023-11-14T01:30:11Z</time>
      </trkpt>
      <trkpt lat="46.51205" lon="-0.82618">
        <ele>75</ele>
        <time>2023-11-14T01:32:08Z</time>
      </trkpt>
      <trkpt lat="46.5121" lon="-0.82637">
        <ele>75</ele>
        <time>2023-11-14T01:32:26Z</time>
      </trkpt>
      <trkpt lat="46.51376" lon="-0.82771">
        <ele>62</ele>
        <time>2023-11-14T01:36:40Z</time>
      </trkpt>
      <trkpt lat="46.51418" lon="-0.82939">
        <ele>50</ele>
        <time>2023-11-14T01:39:24Z</time>
      </trkpt>
      <trkpt lat="46.51415" lon="-0.83096">
        <ele>38</ele>
        <time>2023-11-14T01:41:48Z</time>
      </trkpt>
      <trkpt lat="46.51315" lon="-0.83058">
        <ele>46</ele>
        <time>2023-11-14T01:44:06Z</time>
      </trkpt>
      <trkpt lat="46.51205" lon="-0.83272">
        <ele>38</ele>
        <time>2023-11-14T01:48:11Z</time>
      </trkpt>
      <trkpt lat="46.50966" lon="-0.83314">
        <ele>62</ele>
        <time>2023-11-14T01:53:33Z</time>
      </trkpt>
      <trkpt lat="46.50782" lon="-0.83341">
        <ele>60</ele>
        <time>2023-11-14T01:57:39Z</time>
      </trkpt>
      <trkpt lat="46.50574" lon="-0.8347">
        <ele>65</ele>
        <time>2023-11-14T02:02:41Z</time>
      </trkpt>
      <trkpt lat="46.50495" lon="-0.83635">
        <ele>69</ele>
        <time>2023-11-14T02:05:46Z</time>
      </trkpt>
      <trkpt lat="46.50461" lon="-0.83639">
        <ele>68</ele>
        <time>2023-11-14T02:06:31Z</time>
      </trkpt>
      <trkpt lat="46.50374" lon="-0.83799">
        <ele>63</ele>
        <time>2023-11-14T02:09:39Z</time>
      </trkpt>
      <trkpt lat="46.50287" lon="-0.83902">
        <ele>58</ele>
        <time>2023-11-14T02:12:08Z</time>
      </trkpt>
      <trkpt lat="46.50221" lon="-0.83845">
        <ele>56</ele>
        <time>2023-11-14T02:13:51Z</time>
      </trkpt>
      <trkpt lat="46.50163" lon="-0.83906">
        <ele>55</ele>
        <time>2023-11-14T02:15:26Z</time>
      </trkpt>
      <trkpt lat="46.50103" lon="-0.83986">
        <ele>55</ele>
        <time>2023-11-14T02:17:15Z</time>
      </trkpt>
      <trkpt lat="46.49908" lon="-0.84112">
        <ele>60</ele>
        <time>2023-11-14T02:22:00Z</time>
      </trkpt>
      <trkpt lat="46.49911" lon="-0.84132">
        <ele>60</ele>
        <time>2023-11-14T02:22:19Z</time>
      </trkpt>
      <trkpt lat="46.5004" lon="-0.84154">
        <ele>53</ele>
        <time>2023-11-14T02:25:12Z</time>
      </trkpt>
      <trkpt lat="46.50166" lon="-0.84303">
        <ele>48</ele>
        <time>2023-11-14T02:28:49Z</time>
      </trkpt>
      <trkpt lat="46.50119" lon="-0.84491">
        <ele>50</ele>
        <time>2023-11-14T02:31:53Z</time>
      </trkpt>
    </trkseg>
  </trk>
</gpx>